Time;durP1;ratioP1;P1;durP2;ratioP2;P2;SDS_P1;SDS_P2;PMS_P1;PMS_P2;Temp;Humidity;BMP_temperature;BMP_pressure;BME280_temperature;BME280_humidity;BME280_pressure;Samples;Min_cycle;Max_cycle;Signal;HPM_P1;HPM_P2
2023/08/21 00:00:30;;;;;;;2.38;2.17;;;;;;;30.70;46.50;99051.81;2075256;28;20515;-50
2023/08/21 00:01:32;;;;;;;2.85;2.65;;;;;;;30.71;46.44;99039.78;2077069;28;20163;-55
2023/08/21 00:02:33;;;;;;;3.60;3.30;;;;;;;30.71;46.39;99042.50;2073299;28;20056;-52
2023/08/21 00:03:35;;;;;;;2.67;2.47;;;;;;;30.73;46.70;99042.25;2075376;28;21479;-52
2023/08/21 00:04:36;;;;;;;2.53;2.30;;;;;;;30.70;46.74;99037.28;2074149;28;20073;-57
2023/08/21 00:05:38;;;;;;;2.83;2.63;;;;;;;30.70;46.55;99042.75;2077796;28;20049;-50
2023/08/21 00:06:38;;;;;;;2.90;2.70;;;;;;;30.69;47.01;99032.91;2075680;28;20049;-54
2023/08/21 00:07:40;;;;;;;3.30;3.00;;;;;;;30.71;46.89;99041.69;2077553;28;20492;-52
2023/08/21 00:08:43;;;;;;;2.58;2.38;;;;;;;30.70;46.80;99040.03;2074816;28;20053;-50
2023/08/21 00:09:45;;;;;;;2.78;2.58;;;;;;;30.68;46.59;99040.31;2076629;28;20463;-55
2023/08/21 00:10:45;;;;;;;2.90;2.70;;;;;;;30.69;46.88;99044.69;2076439;28;20049;-51
2023/08/21 00:11:47;;;;;;;2.55;2.28;;;;;;;30.71;46.75;99044.44;2078406;28;20261;-55
2023/08/21 00:12:48;;;;;;;2.60;2.40;;;;;;;30.71;46.66;99047.16;2076249;28;20057;-55
2023/08/21 00:13:50;;;;;;;3.15;2.85;;;;;;;30.69;46.82;99043.88;2076986;28;20472;-56
2023/08/21 00:14:51;;;;;;;2.90;2.63;;;;;;;30.69;46.73;99049.34;2076144;28;20085;-56
2023/08/21 00:15:54;;;;;;;3.35;3.15;;;;;;;30.70;46.99;99045.50;2078319;28;20053;-53
2023/08/21 00:16:55;;;;;;;3.42;3.13;;;;;;;30.70;46.93;99050.97;2076065;28;20052;-56
2023/08/21 00:17:56;;;;;;;3.03;2.80;;;;;;;30.69;46.55;99049.34;2075603;28;20099;-54
2023/08/21 00:18:57;;;;;;;2.58;2.38;;;;;;;30.67;46.84;99044.16;2072761;28;20084;-53
2023/08/21 00:19:59;;;;;;;2.85;2.65;;;;;;;30.70;47.02;99050.97;2072327;28;20052;-53
2023/08/21 00:21:00;;;;;;;2.97;2.67;;;;;;;30.70;46.61;99046.34;2074803;28;20050;-54
2023/08/21 00:22:02;;;;;;;3.38;3.13;;;;;;;30.70;46.37;99045.50;2074083;28;20056;-52
2023/08/21 00:23:03;;;;;;;2.72;2.53;;;;;;;30.72;46.82;99046.06;2074218;28;20080;-55
2023/08/21 00:24:07;;;;;;;2.88;2.67;;;;;;;30.72;46.89;99043.31;2076423;28;20080;-54
2023/08/21 00:25:08;;;;;;;3.20;2.90;;;;;;;30.70;46.58;99045.50;2073708;28;20508;-55
2023/08/21 00:26:09;;;;;;;2.92;2.72;;;;;;;30.69;46.96;99049.34;2076883;28;20221;-52
2023/08/21 00:27:10;;;;;;;2.88;2.67;;;;;;;30.69;46.88;99047.44;2075889;28;20188;-54
2023/08/21 00:28:13;;;;;;;2.60;2.40;;;;;;;30.70;46.90;99045.50;2077204;28;20037;-56
2023/08/21 00:29:13;;;;;;;2.55;2.33;;;;;;;30.70;46.41;99040.03;2076535;28;20136;-53
2023/08/21 00:30:15;;;;;;;2.70;2.50;;;;;;;30.68;47.04;99042.25;2076757;28;20052;-54
2023/08/21 00:31:16;;;;;;;2.65;2.45;;;;;;;30.70;46.92;99048.25;2076822;28;20427;-49
2023/08/21 00:32:18;;;;;;;2.70;2.50;;;;;;;30.70;46.73;99040.03;2076062;28;20060;-53
2023/08/21 00:33:19;;;;;;;2.47;2.28;;;;;;;30.69;46.99;99041.13;2076387;28;20118;-50
2023/08/21 00:34:21;;;;;;;3.05;2.85;;;;;;;30.70;46.45;99040.88;2073213;28;20053;-53
2023/08/21 00:35:21;;;;;;;3.00;2.80;;;;;;;30.68;46.97;99043.06;2076602;28;20042;-51
2023/08/21 00:36:23;;;;;;;3.05;2.80;;;;;;;30.67;46.56;99041.44;2075431;28;20059;-49
2023/08/21 00:37:24;;;;;;;3.28;3.03;;;;;;;30.67;46.70;99040.56;2075597;28;20526;-50
2023/08/21 00:38:26;;;;;;;3.25;3.05;;;;;;;30.67;46.68;99040.56;2074816;28;20056;-51
2023/08/21 00:39:28;;;;;;;2.63;2.42;;;;;;;30.69;46.92;99041.13;2074496;28;20475;-50
2023/08/21 00:40:32;;;;;;;2.92;2.67;;;;;;;30.68;46.66;99032.09;2076485;28;20042;-49
2023/08/21 00:41:34;;;;;;;2.72;2.53;;;;;;;30.67;46.92;99040.56;2078325;28;20073;-50
2023/08/21 00:42:36;;;;;;;3.20;2.90;;;;;;;30.67;46.88;99038.69;2074424;28;20057;-51
2023/08/21 00:43:36;;;;;;;2.72;2.53;;;;;;;30.65;46.90;99037.31;2077912;28;20052;-54
2023/08/21 00:44:38;;;;;;;3.10;2.80;;;;;;;30.69;46.67;99038.41;2074919;28;20270;-51
2023/08/21 00:45:42;;;;;;;2.95;2.75;;;;;;;30.69;46.90;99032.91;2075488;28;20475;-52
2023/08/21 00:46:44;;;;;;;2.97;2.78;;;;;;;30.67;46.66;99040.56;2073145;28;20518;-51
2023/08/21 00:47:45;;;;;;;2.90;2.70;;;;;;;30.68;46.69;99032.09;2075489;28;20060;-52
2023/08/21 00:48:47;;;;;;;2.97;2.78;;;;;;;30.67;46.54;99040.56;2076320;28;20112;-55
2023/08/21 00:49:48;;;;;;;2.88;2.67;;;;;;;30.68;46.49;99037.56;2086212;28;20045;-54
2023/08/21 00:50:50;;;;;;;3.10;2.85;;;;;;;30.71;46.72;99039.78;2081441;28;20045;-52
2023/08/21 00:51:52;;;;;;;3.10;2.80;;;;;;;30.69;46.54;99038.41;2083840;28;20049;-50
2023/08/21 00:52:53;;;;;;;3.20;2.90;;;;;;;30.70;46.41;99035.41;2081490;28;20532;-49
2023/08/21 00:53:55;;;;;;;3.03;2.83;;;;;;;30.67;47.03;99035.09;2084212;28;20060;-55
2023/08/21 00:54:58;;;;;;;3.28;3.00;;;;;;;30.66;46.69;99034.28;2082053;28;20072;-53
2023/08/21 00:56:00;;;;;;;3.17;2.95;;;;;;;30.66;46.84;99036.22;2082508;28;20119;-51
2023/08/21 00:57:02;;;;;;;2.88;2.67;;;;;;;30.69;46.99;99035.66;2071292;28;20277;-51
2023/08/21 00:58:05;;;;;;;2.85;2.65;;;;;;;30.66;46.84;99033.47;2078467;28;20052;-52
2023/08/21 00:59:06;;;;;;;2.70;2.47;;;;;;;30.66;46.78;99036.22;2073529;28;20423;-52
2023/08/21 01:00:10;;;;;;;3.10;2.83;;;;;;;30.65;46.55;99026.38;2077053;28;20050;-50
2023/08/21 01:01:14;;;;;;;2.53;2.33;;;;;;;30.65;46.62;99027.19;2074750;28;20128;-49
2023/08/21 01:02:17;;;;;;;2.72;2.53;;;;;;;30.64;46.70;99030.19;2077725;28;20423;-52
2023/08/21 01:03:18;;;;;;;2.88;2.58;;;;;;;30.64;46.75;99032.91;2074696;28;20072;-50
2023/08/21 01:04:21;;;;;;;3.10;2.85;;;;;;;30.64;46.71;99028.25;2081713;28;20045;-51
2023/08/21 01:05:23;;;;;;;3.25;2.95;;;;;;;30.64;46.96;99033.72;2077025;28;20140;-50
2023/08/21 01:06:24;;;;;;;2.63;2.42;;;;;;;30.65;46.99;99031.84;2077271;28;20053;-51
2023/08/21 01:07:26;;;;;;;4.47;2.83;;;;;;;30.66;46.79;99028.00;2077072;28;20084;-54
2023/08/21 01:08:34;;;;;;;3.17;2.88;;;;;;;30.67;46.75;99033.22;2078749;28;20046;-56
2023/08/21 01:09:41;;;;;;;2.65;2.45;;;;;;;30.66;46.62;99028.00;2076426;28;20419;-52
2023/08/21 01:10:50;;;;;;;2.75;2.50;;;;;;;30.63;47.01;99028.53;2073966;28;20077;-50
2023/08/21 01:11:58;;;;;;;2.70;2.50;;;;;;;30.63;46.79;99031.28;2077242;28;20324;-51
2023/08/21 01:13:07;;;;;;;3.08;2.88;;;;;;;30.64;46.85;99036.47;2084151;28;20049;-50
2023/08/21 01:14:17;;;;;;;3.50;3.20;;;;;;;30.64;46.90;99030.19;2077903;28;20124;-54
2023/08/21 01:15:19;;;;;;;3.30;3.03;;;;;;;30.62;46.99;99033.22;2079056;28;20069;-56
2023/08/21 01:16:21;;;;;;;2.92;2.72;;;;;;;30.63;46.78;99031.28;2086161;28;20515;-57
2023/08/21 01:17:25;;;;;;;3.67;3.38;;;;;;;30.65;46.41;99034.56;2084497;28;20132;-52
2023/08/21 01:18:28;;;;;;;2.90;2.70;;;;;;;30.64;46.70;99038.38;2083953;28;20068;-54
2023/08/21 01:19:36;;;;;;;3.20;2.80;;;;;;;30.63;46.82;99039.50;2085612;28;20056;-53
2023/08/21 01:20:38;;;;;;;3.03;2.83;;;;;;;30.62;46.88;99035.94;2081265;28;20048;-53
2023/08/21 01:21:40;;;;;;;3.42;3.15;;;;;;;30.62;46.59;99037.84;2075100;28;20095;-50
2023/08/21 01:22:45;;;;;;;2.80;2.60;;;;;;;30.62;46.62;99041.41;2074975;28;20053;-50
2023/08/21 01:23:49;;;;;;;3.30;3.00;;;;;;;30.64;46.58;99044.69;2074794;28;20137;-53
2023/08/21 01:24:50;;;;;;;2.83;2.63;;;;;;;30.63;46.70;99036.75;2075347;28;20050;-55
2023/08/21 01:25:51;;;;;;;2.80;2.60;;;;;;;30.61;47.20;99039.75;2075276;28;20076;-49
2023/08/21 01:26:52;;;;;;;3.08;2.83;;;;;;;30.65;47.00;99045.53;2073289;28;20053;-50
2023/08/21 01:27:54;;;;;;;3.50;3.30;;;;;;;30.64;46.65;99043.88;2078490;28;20071;-55
2023/08/21 01:28:55;;;;;;;3.63;3.30;;;;;;;30.62;46.85;99041.41;2074363;28;20046;-50
2023/08/21 01:29:57;;;;;;;2.90;2.70;;;;;;;30.63;46.79;99044.97;2076027;28;20427;-54
2023/08/21 01:31:05;;;;;;;3.22;2.92;;;;;;;30.62;46.86;99043.31;2076099;28;20622;-56
2023/08/21 01:32:11;;;;;;;2.65;2.45;;;;;;;30.61;47.12;99041.69;2076116;28;20507;-54
2023/08/21 01:33:14;;;;;;;2.88;2.67;;;;;;;30.61;47.16;99041.69;2075098;28;20705;-51
2023/08/21 01:34:16;;;;;;;3.03;2.75;;;;;;;30.62;46.83;99035.09;2076377;28;20466;-51
2023/08/21 01:35:20;;;;;;;3.55;2.85;;;;;;;30.61;47.07;99038.94;2076114;28;20045;-54
2023/08/21 01:36:22;;;;;;;2.85;2.65;;;;;;;30.60;46.70;99038.13;2077818;28;20053;-53
2023/08/21 01:37:24;;;;;;;3.35;3.05;;;;;;;30.61;46.79;99044.41;2074977;28;20072;-57
2023/08/21 01:38:26;;;;;;;2.65;2.33;;;;;;;30.63;46.80;99040.31;2076340;28;20053;-56
2023/08/21 01:39:29;;;;;;;3.10;2.85;;;;;;;30.62;46.86;99037.84;2076906;28;20068;-53
2023/08/21 01:40:31;;;;;;;3.30;3.00;;;;;;;30.63;46.79;99037.56;2077244;28;20095;-52
2023/08/21 01:41:31;;;;;;;3.20;3.00;;;;;;;30.61;46.98;99037.03;2076242;28;20543;-55
2023/08/21 01:42:33;;;;;;;3.22;3.03;;;;;;;30.62;46.90;99035.94;2074958;28;20239;-52
2023/08/21 01:43:34;;;;;;;3.38;3.08;;;;;;;30.62;46.77;99035.09;2076903;28;20091;-50
2023/08/21 01:44:36;;;;;;;3.15;2.85;;;;;;;30.61;46.84;99036.19;2075477;28;20530;-53
2023/08/21 01:45:37;;;;;;;3.55;3.25;;;;;;;30.60;46.78;99042.78;2075899;28;20052;-54
2023/08/21 01:46:38;;;;;;;3.38;3.08;;;;;;;30.61;47.21;99037.03;2075215;28;20056;-50
2023/08/21 01:47:39;;;;;;;3.03;2.83;;;;;;;30.60;47.05;99032.66;2076714;28;20129;-56
2023/08/21 01:48:41;;;;;;;3.45;3.15;;;;;;;30.59;46.66;99033.75;2076045;28;20412;-50
2023/08/21 01:49:42;;;;;;;2.90;2.70;;;;;;;30.60;46.75;99040.03;2075673;28;20052;-53
2023/08/21 01:50:44;;;;;;;2.80;2.53;;;;;;;30.59;46.90;99041.97;2075869;28;20584;-52
2023/08/21 01:51:44;;;;;;;3.17;2.90;;;;;;;30.58;47.08;99034.84;2083776;28;20510;-53
2023/08/21 01:52:46;;;;;;;3.50;3.20;;;;;;;30.59;46.99;99035.66;2084297;28;21892;-53
2023/08/21 01:53:47;;;;;;;2.80;2.60;;;;;;;30.60;46.75;99040.03;2084779;28;20527;-58
2023/08/21 01:54:52;;;;;;;3.38;3.13;;;;;;;30.62;46.94;99037.84;2082551;28;20056;-53
2023/08/21 01:55:52;;;;;;;2.80;2.60;;;;;;;30.59;46.90;99039.22;2085056;28;20056;-50
2023/08/21 01:56:54;;;;;;;3.45;3.15;;;;;;;30.58;46.79;99031.28;2082860;28;20052;-54
2023/08/21 01:57:55;;;;;;;3.35;3.05;;;;;;;30.59;46.87;99039.22;2084458;28;20415;-57
2023/08/21 01:58:57;;;;;;;2.80;2.60;;;;;;;30.60;46.91;99031.84;2082515;28;20057;-54
2023/08/21 01:59:58;;;;;;;5.88;3.25;;;;;;;30.58;46.68;99034.84;2075913;28;20053;-51
2023/08/21 02:01:00;;;;;;;3.38;3.13;;;;;;;30.58;46.76;99034.00;2075593;28;20049;-51
2023/08/21 02:02:00;;;;;;;3.30;3.00;;;;;;;30.60;46.64;99038.13;2077712;28;20045;-53
2023/08/21 02:03:02;;;;;;;3.80;3.50;;;;;;;30.59;46.72;99033.75;2073887;28;20037;-50
2023/08/21 02:04:22;;;;;;;3.50;3.20;;;;;;;30.59;47.16;99032.91;2076084;28;20121;-53
2023/08/21 02:05:24;;;;;;;3.67;3.38;;;;;;;30.55;46.76;99029.91;2073244;28;20048;-50
2023/08/21 02:06:24;;;;;;;3.70;3.40;;;;;;;30.58;46.75;99032.09;2077419;28;20140;-51
2023/08/21 02:07:26;;;;;;;3.15;2.85;;;;;;;30.60;46.89;99037.31;2075012;28;20064;-56
2023/08/21 02:08:32;;;;;;;3.05;2.85;;;;;;;30.59;47.21;99033.75;2074244;28;20415;-53
2023/08/21 02:09:33;;;;;;;4.45;3.20;;;;;;;30.57;46.89;99040.59;2074883;28;20038;-55
2023/08/21 02:10:36;;;;;;;3.08;2.88;;;;;;;30.59;47.02;99032.91;2076796;28;20869;-51
2023/08/21 02:11:38;;;;;;;3.22;2.92;;;;;;;30.59;46.97;99036.50;2073916;28;20037;-51
2023/08/21 02:12:38;;;;;;;3.08;2.80;;;;;;;30.59;47.29;99030.16;2075475;28;20053;-52
2023/08/21 02:13:40;;;;;;;3.75;3.45;;;;;;;30.57;46.62;99030.47;2075220;28;20060;-54
2023/08/21 02:14:41;;;;;;;3.10;2.80;;;;;;;30.58;46.76;99034.84;2076124;28;20083;-50
2023/08/21 02:15:43;;;;;;;3.13;2.83;;;;;;;30.59;47.14;99032.91;2076467;28;20412;-54
2023/08/21 02:16:44;;;;;;;3.25;3.00;;;;;;;30.56;46.92;99034.28;2074360;28;20664;-54
2023/08/21 02:17:45;;;;;;;3.60;3.03;;;;;;;30.59;47.16;99030.16;2075961;28;20136;-56
2023/08/21 02:18:46;;;;;;;2.80;2.60;;;;;;;30.59;47.07;99027.44;2074181;28;20435;-53
2023/08/21 02:19:48;;;;;;;3.00;2.70;;;;;;;30.58;46.76;99028.53;2077369;28;20045;-53
2023/08/21 02:20:49;;;;;;;3.20;2.90;;;;;;;30.58;47.21;99028.53;2075928;28;20510;-53
2023/08/21 02:21:51;;;;;;;3.83;3.53;;;;;;;30.60;46.94;99026.34;2077260;28;20053;-55
2023/08/21 02:22:52;;;;;;;2.92;2.67;;;;;;;30.57;46.84;99029.66;2074373;28;20064;-55
2023/08/21 02:23:54;;;;;;;3.20;2.90;;;;;;;30.60;47.01;99026.34;2076766;28;20349;-55
2023/08/21 02:24:55;;;;;;;2.92;2.67;;;;;;;30.57;46.73;99029.66;2075321;28;20052;-55
2023/08/21 02:25:58;;;;;;;2.92;2.70;;;;;;;30.55;47.06;99024.44;2076195;28;20143;-52
2023/08/21 02:26:59;;;;;;;2.97;2.78;;;;;;;30.55;47.14;99027.16;2074701;28;20408;-53
2023/08/21 02:28:01;;;;;;;3.33;3.13;;;;;;;30.57;46.83;99024.19;2075936;28;20045;-51
2023/08/21 02:29:03;;;;;;;3.22;2.92;;;;;;;30.57;46.88;99024.19;2074427;28;20048;-54
2023/08/21 02:30:07;;;;;;;3.92;3.63;;;;;;;30.56;46.59;99017.84;2076147;28;20058;-56
2023/08/21 02:31:09;;;;;;;3.17;2.95;;;;;;;30.56;47.01;99022.50;2075321;28;20038;-54
2023/08/21 02:32:11;;;;;;;3.60;3.30;;;;;;;30.56;46.74;99027.97;2074798;28;20466;-54
2023/08/21 02:33:12;;;;;;;2.65;2.45;;;;;;;30.55;46.97;99018.97;2076154;28;20045;-53
2023/08/21 02:34:14;;;;;;;3.55;3.25;;;;;;;30.55;47.11;99018.16;2075933;28;20049;-55
2023/08/21 02:35:15;;;;;;;3.10;2.90;;;;;;;30.58;46.81;99029.34;2075298;28;20083;-54
2023/08/21 02:36:16;;;;;;;3.70;3.40;;;;;;;30.58;46.76;99023.06;2076149;28;20508;-52
2023/08/21 02:37:18;;;;;;;3.20;3.00;;;;;;;30.56;47.16;99020.59;2075483;28;20292;-53
2023/08/21 02:38:19;;;;;;;2.88;2.60;;;;;;;30.56;46.83;99020.59;2078263;28;20504;-52
2023/08/21 02:39:20;;;;;;;3.33;3.03;;;;;;;30.56;46.82;99022.50;2074781;28;20065;-52
2023/08/21 02:40:21;;;;;;;3.28;2.97;;;;;;;30.56;46.88;99017.84;2077611;28;20041;-56
2023/08/21 02:41:24;;;;;;;3.47;3.15;;;;;;;30.57;46.86;99015.97;2075461;28;20067;-53
2023/08/21 02:42:25;;;;;;;3.63;3.28;;;;;;;30.56;46.83;99014.28;2073238;28;20394;-56
2023/08/21 02:43:27;;;;;;;3.35;3.13;;;;;;;30.55;47.09;99015.41;2073685;28;20048;-55
2023/08/21 02:44:28;;;;;;;2.83;2.63;;;;;;;30.56;46.63;99017.84;2076081;28;20069;-52
2023/08/21 02:45:30;;;;;;;3.50;3.20;;;;;;;30.55;46.91;99015.41;2073470;28;20057;-54
2023/08/21 02:46:30;;;;;;;4.22;3.10;;;;;;;30.55;47.02;99015.41;2075659;28;20081;-52
2023/08/21 02:47:32;;;;;;;3.25;2.95;;;;;;;30.55;47.11;99016.22;2074884;28;20049;-50
2023/08/21 02:48:33;;;;;;;2.80;2.60;;;;;;;30.57;46.63;99019.50;2076429;28;20072;-53
2023/08/21 02:49:35;;;;;;;3.60;3.30;;;;;;;30.55;47.06;99018.16;2076187;28;20045;-54
2023/08/21 02:50:36;;;;;;;3.25;2.97;;;;;;;30.54;46.87;99011.84;2074000;28;20045;-56
2023/08/21 02:51:37;;;;;;;3.78;3.47;;;;;;;30.54;47.17;99014.59;2075044;28;20041;-55
2023/08/21 02:52:38;;;;;;;2.85;2.65;;;;;;;30.54;47.11;99013.78;2076856;28;20049;-56
2023/08/21 02:53:40;;;;;;;3.55;3.25;;;;;;;30.54;47.06;99009.13;2074786;28;20404;-53
2023/08/21 02:54:41;;;;;;;2.90;2.70;;;;;;;30.54;47.14;99005.56;2077164;28;20056;-53
2023/08/21 02:55:43;;;;;;;2.97;2.75;;;;;;;30.56;47.20;99014.28;2073957;28;20514;-55
2023/08/21 02:56:45;;;;;;;3.50;3.20;;;;;;;30.56;46.82;99014.28;2076386;28;20073;-56
2023/08/21 02:57:47;;;;;;;2.92;2.72;;;;;;;30.55;46.99;99012.66;2075585;28;20053;-53
2023/08/21 02:58:48;;;;;;;2.88;2.67;;;;;;;30.54;46.72;99002.81;2082424;28;20052;-55
2023/08/21 02:59:50;;;;;;;3.13;2.92;;;;;;;30.56;46.81;99008.81;2082547;28;20052;-53
2023/08/21 03:00:50;;;;;;;3.15;2.88;;;;;;;30.55;46.77;99007.19;2082011;28;20519;-57
2023/08/21 03:01:52;;;;;;;3.13;2.88;;;;;;;30.54;46.97;99002.81;2085063;28;20333;-52
2023/08/21 03:02:53;;;;;;;3.85;3.40;;;;;;;30.54;47.19;99008.28;2081535;28;20049;-55
2023/08/21 03:03:55;;;;;;;3.70;3.40;;;;;;;30.52;46.89;99010.47;2081781;28;20513;-50
2023/08/21 03:04:56;;;;;;;2.92;2.72;;;;;;;30.53;46.91;99003.91;2076556;28;20077;-53
2023/08/21 03:05:57;;;;;;;3.53;3.20;;;;;;;30.55;47.17;99009.94;2077155;28;20045;-51
2023/08/21 03:06:58;;;;;;;2.88;2.58;;;;;;;30.53;47.27;99007.44;2077156;28;20500;-53
2023/08/21 03:08:00;;;;;;;2.90;2.70;;;;;;;30.52;47.13;99003.09;2075287;28;20053;-54
2023/08/21 03:09:01;;;;;;;2.78;2.58;;;;;;;30.54;46.70;99000.09;2075275;28;20056;-53
2023/08/21 03:10:03;;;;;;;3.00;2.72;;;;;;;30.54;46.61;99009.13;2074314;28;20051;-50
2023/08/21 03:11:04;;;;;;;3.05;2.83;;;;;;;30.52;46.80;99005.81;2076978;28;20274;-52
2023/08/21 03:12:08;;;;;;;3.58;3.28;;;;;;;30.53;46.97;99006.63;2074852;28;20045;-50
2023/08/21 03:13:09;;;;;;;3.83;3.22;;;;;;;30.50;47.22;99000.59;2075039;28;20052;-55
2023/08/21 03:14:11;;;;;;;3.00;2.80;;;;;;;30.52;47.18;99003.09;2074775;28;20416;-51
2023/08/21 03:15:12;;;;;;;3.20;2.95;;;;;;;30.52;46.77;99005.00;2074419;28;20072;-54
2023/08/21 03:16:13;;;;;;;2.83;2.63;;;;;;;30.52;46.65;98999.53;2073592;28;20057;-50
2023/08/21 03:17:14;;;;;;;3.42;3.13;;;;;;;30.52;47.03;99002.25;2074517;28;20053;-50
2023/08/21 03:18:16;;;;;;;3.38;3.08;;;;;;;30.53;46.59;98995.69;2073143;28;20038;-50
2023/08/21 03:19:17;;;;;;;3.55;3.22;;;;;;;30.53;46.86;98998.44;2076838;28;20069;-53
2023/08/21 03:20:19;;;;;;;4.35;3.05;;;;;;;30.52;47.15;98994.06;2071823;28;20076;-53
2023/08/21 03:21:20;;;;;;;3.22;2.90;;;;;;;30.50;47.16;99000.59;2082911;28;20045;-55
2023/08/21 03:22:21;;;;;;;3.38;3.08;;;;;;;30.50;46.84;99000.59;2083431;28;20438;-50
2023/08/21 03:23:22;;;;;;;3.60;3.30;;;;;;;30.53;46.96;99003.91;2084829;28;20048;-50
2023/08/21 03:24:24;;;;;;;3.53;3.22;;;;;;;30.52;46.76;98994.06;2082921;28;20111;-50
2023/08/21 03:25:25;;;;;;;3.50;3.20;;;;;;;30.53;47.17;99012.13;2084377;28;20065;-50
2023/08/21 03:26:27;;;;;;;4.05;3.75;;;;;;;30.52;46.83;99002.25;2080209;28;20525;-54
2023/08/21 03:27:30;;;;;;;3.53;3.22;;;;;;;30.52;46.69;98999.53;2085436;28;20049;-50
2023/08/21 03:28:31;;;;;;;3.55;3.25;;;;;;;30.50;46.83;99008.81;2082009;28;20103;-51
2023/08/21 03:29:32;;;;;;;3.45;3.15;;;;;;;30.52;46.68;99007.75;2084936;28;20411;-53
2023/08/21 03:30:34;;;;;;;3.55;3.25;;;;;;;30.52;47.06;99005.81;2074822;28;20203;-53
2023/08/21 03:31:35;;;;;;;3.30;3.00;;;;;;;30.52;46.96;99005.00;2074108;28;20099;-50
2023/08/21 03:32:37;;;;;;;3.45;3.15;;;;;;;30.50;46.75;99003.34;2082895;28;20455;-50
2023/08/21 03:33:38;;;;;;;3.75;3.45;;;;;;;30.50;46.93;99002.53;2081306;28;20857;-59
2023/08/21 03:34:40;;;;;;;3.65;3.35;;;;;;;30.50;47.09;98999.78;2081465;28;20048;-55
2023/08/21 03:35:41;;;;;;;2.97;2.78;;;;;;;30.50;46.81;99003.34;2075389;28;20065;-51
2023/08/21 03:36:42;;;;;;;3.28;3.08;;;;;;;30.50;47.11;98997.88;2074977;28;20408;-52
2023/08/21 03:37:43;;;;;;;3.40;3.10;;;;;;;30.50;46.96;99003.34;2076925;28;20124;-52
2023/08/21 03:38:45;;;;;;;3.45;3.15;;;;;;;30.50;46.60;99002.53;2074925;28;20037;-57
2023/08/21 03:39:46;;;;;;;3.75;3.45;;;;;;;30.50;47.01;99000.59;2075487;28;20664;-55
2023/08/21 03:40:48;;;;;;;3.55;3.25;;;;;;;30.50;47.00;99002.53;2075936;28;20045;-56
2023/08/21 03:41:48;;;;;;;2.97;2.67;;;;;;;30.50;46.64;99008.81;2074930;28;20416;-51
2023/08/21 03:42:52;;;;;;;3.97;3.45;;;;;;;30.51;47.00;99004.19;2074041;28;20137;-57
2023/08/21 03:43:53;;;;;;;3.40;3.13;;;;;;;30.50;46.98;99008.00;2073835;28;20238;-51
2023/08/21 03:44:55;;;;;;;3.15;2.85;;;;;;;30.49;46.81;99001.72;2075183;28;20552;-56
2023/08/21 03:45:56;;;;;;;3.92;3.55;;;;;;;30.49;46.93;98998.97;2073935;28;20045;-50
2023/08/21 03:46:57;;;;;;;3.85;3.25;;;;;;;30.50;46.98;99000.59;2074119;28;20090;-52
2023/08/21 03:47:58;;;;;;;3.80;3.50;;;;;;;30.50;46.90;99005.25;2073971;28;20050;-50
2023/08/21 03:49:00;;;;;;;3.13;2.92;;;;;;;30.49;47.15;99007.19;2073966;28;20042;-54
2023/08/21 03:50:01;;;;;;;3.00;2.80;;;;;;;30.49;46.92;99006.38;2075411;28;20045;-52
2023/08/21 03:51:03;;;;;;;3.88;3.58;;;;;;;30.49;46.67;99004.44;2085113;28;20041;-52
2023/08/21 03:52:04;;;;;;;3.33;3.03;;;;;;;30.50;46.74;99003.34;2083658;28;20752;-57
2023/08/21 03:53:06;;;;;;;3.45;3.15;;;;;;;30.49;47.12;99009.91;2085465;28;20053;-54
2023/08/21 03:54:07;;;;;;;3.92;3.63;;;;;;;30.49;47.13;99011.84;2079844;28;20068;-50
2023/08/21 03:55:09;;;;;;;3.72;3.42;;;;;;;30.50;47.12;99008.00;2081718;28;20082;-50
2023/08/21 03:56:10;;;;;;;4.25;3.95;;;;;;;30.49;46.78;99007.19;2084233;28;20049;-54
2023/08/21 03:57:12;;;;;;;3.75;3.45;;;;;;;30.49;46.65;99004.44;2083275;28;20049;-49
2023/08/21 03:58:15;;;;;;;3.30;3.08;;;;;;;30.49;46.94;99006.38;2082558;28;20057;-53
2023/08/21 03:59:16;;;;;;;3.85;3.55;;;;;;;30.49;46.68;99000.91;2084422;28;20628;-55
2023/08/21 04:00:17;;;;;;;3.30;3.00;;;;;;;30.49;46.80;99004.44;2081484;28;20056;-51
2023/08/21 04:01:19;;;;;;;3.50;3.20;;;;;;;30.49;47.09;99001.72;2086368;28;20123;-51
2023/08/21 04:02:20;;;;;;;3.85;3.55;;;;;;;30.49;46.77;99009.09;2082366;28;20227;-53
2023/08/21 04:03:22;;;;;;;3.45;3.15;;;;;;;30.48;47.02;99008.28;2083785;28;20057;-50
2023/08/21 04:04:23;;;;;;;3.75;3.45;;;;;;;30.48;46.63;99008.28;2078405;28;20080;-49
2023/08/21 04:05:25;;;;;;;3.22;2.92;;;;;;;30.49;46.65;99009.09;2073554;28;20057;-49
2023/08/21 04:06:25;;;;;;;3.75;3.45;;;;;;;30.49;46.86;99003.63;2075323;28;20045;-51
2023/08/21 04:07:27;;;;;;;3.38;3.10;;;;;;;30.50;46.91;99008.81;2075995;28;20571;-51
2023/08/21 04:08:31;;;;;;;3.33;3.03;;;;;;;30.49;46.86;99009.09;2073667;28;20046;-57
2023/08/21 04:09:33;;;;;;;3.60;3.30;;;;;;;30.49;46.91;99000.91;2077106;28;20491;-53
2023/08/21 04:10:34;;;;;;;3.13;2.92;;;;;;;30.48;46.91;99005.56;2076006;28;20065;-51
2023/08/21 04:11:35;;;;;;;2.90;2.70;;;;;;;30.47;46.85;99003.06;2077686;28;20050;-50
2023/08/21 04:12:36;;;;;;;3.85;3.55;;;;;;;30.48;46.72;99012.94;2074020;28;20052;-53
2023/08/21 04:13:38;;;;;;;3.35;3.10;;;;;;;30.48;47.13;99008.28;2077075;28;20048;-53
2023/08/21 04:14:40;;;;;;;3.35;3.13;;;;;;;30.49;46.77;99006.38;2074096;28;20064;-50
2023/08/21 04:15:45;;;;;;;3.72;3.33;;;;;;;30.48;46.86;99008.28;2077023;28;20081;-49
2023/08/21 04:16:46;;;;;;;3.28;2.97;;;;;;;30.47;46.68;99008.56;2072614;28;20057;-53
2023/08/21 04:17:47;;;;;;;3.92;3.60;;;;;;;30.48;46.70;99005.56;2075994;28;20048;-50
2023/08/21 04:18:49;;;;;;;3.65;3.35;;;;;;;30.48;47.12;99013.75;2073208;28;20056;-56
2023/08/21 04:19:50;;;;;;;3.50;3.20;;;;;;;30.48;47.07;99011.03;2075361;28;20496;-50
2023/08/21 04:20:52;;;;;;;3.67;3.38;;;;;;;30.48;46.93;99013.75;2075135;28;20120;-55
2023/08/21 04:21:53;;;;;;;3.28;3.08;;;;;;;30.47;47.10;99011.28;2076166;28;20050;-57
2023/08/21 04:22:55;;;;;;;3.55;3.25;;;;;;;30.48;47.20;99005.56;2072581;28;20049;-56
2023/08/21 04:23:55;;;;;;;3.13;2.90;;;;;;;30.48;46.66;99019.25;2071776;28;20189;-56
2023/08/21 04:24:57;;;;;;;4.28;3.90;;;;;;;30.49;47.19;99012.66;2074806;28;20132;-53
2023/08/21 04:26:01;;;;;;;3.97;3.67;;;;;;;30.48;46.94;99005.56;2077151;28;20060;-55
2023/08/21 04:27:03;;;;;;;3.15;2.95;;;;;;;30.47;46.73;99009.38;2076386;28;20050;-54
2023/08/21 04:28:04;;;;;;;3.65;3.35;;;;;;;30.46;46.92;99013.22;2077554;28;20069;-56
2023/08/21 04:29:07;;;;;;;3.85;3.55;;;;;;;30.48;47.15;99010.22;2077172;28;20061;-53
2023/08/21 04:30:09;;;;;;;3.47;3.17;;;;;;;30.47;46.85;99014.84;2076496;28;20049;-53
2023/08/21 04:31:10;;;;;;;3.45;3.15;;;;;;;30.47;46.59;99024.97;2074812;28;20042;-53
2023/08/21 04:32:12;;;;;;;4.50;4.05;;;;;;;30.48;47.02;99016.50;2074713;28;20046;-55
2023/08/21 04:33:14;;;;;;;4.05;3.75;;;;;;;30.48;46.83;99021.97;2076711;28;20053;-53
2023/08/21 04:34:14;;;;;;;3.58;3.28;;;;;;;30.48;46.76;99016.50;2074919;28;21604;-54
2023/08/21 04:35:16;;;;;;;3.78;3.47;;;;;;;30.48;46.61;99021.97;2069411;28;20088;-57
2023/08/21 04:36:17;;;;;;;3.58;3.28;;;;;;;30.47;47.01;99016.75;2073325;28;20531;-50
2023/08/21 04:37:19;;;;;;;3.38;3.17;;;;;;;30.46;46.90;99017.88;2074163;28;20038;-52
2023/08/21 04:38:20;;;;;;;2.90;2.70;;;;;;;30.46;46.55;99013.22;2076577;28;20084;-54
2023/08/21 04:39:22;;;;;;;3.38;3.08;;;;;;;30.47;47.00;99017.56;2075673;28;20061;-54
2023/08/21 04:40:24;;;;;;;3.63;3.33;;;;;;;30.49;46.99;99017.31;2074186;28;20045;-50
2023/08/21 04:41:26;;;;;;;3.88;3.47;;;;;;;30.48;47.02;99018.44;2076981;28;20474;-50
2023/08/21 04:42:27;;;;;;;3.25;2.95;;;;;;;30.47;46.73;99020.31;2076887;28;20050;-52
2023/08/21 04:43:28;;;;;;;4.03;3.70;;;;;;;30.47;46.74;99019.50;2078148;28;20041;-56
2023/08/21 04:44:31;;;;;;;3.83;3.53;;;;;;;30.47;46.61;99023.06;2075570;28;20046;-50
2023/08/21 04:45:33;;;;;;;3.95;3.47;;;;;;;30.47;46.68;99024.97;2076697;28;20045;-54
2023/08/21 04:46:34;;;;;;;3.15;2.85;;;;;;;30.46;46.80;99023.34;2076244;28;20511;-54
2023/08/21 04:47:36;;;;;;;3.30;3.00;;;;;;;30.46;46.58;99023.34;2077185;28;20132;-50
2023/08/21 04:48:37;;;;;;;3.28;2.97;;;;;;;30.45;46.70;99028.00;2075427;28;20092;-50
2023/08/21 04:49:38;;;;;;;3.70;3.40;;;;;;;30.46;46.65;99029.63;2077119;28;20049;-54
2023/08/21 04:50:39;;;;;;;4.00;3.70;;;;;;;30.47;47.00;99030.44;2076032;28;20049;-50
2023/08/21 04:51:41;;;;;;;3.85;3.42;;;;;;;30.45;46.69;99028.00;2075394;28;20045;-54